sensor_id;sensor_type;location;lat;lon;timestamp;temperature;humidity
11454;DHT22;5783;55.174;61.310;2022-08-07T00:01:18;25.70;55.40
11454;DHT22;5783;55.174;61.310;2022-08-07T00:03:48;25.70;55.60
11454;DHT22;5783;55.174;61.310;2022-08-07T00:06:17;25.70;55.50
11454;DHT22;5783;55.174;61.310;2022-08-07T00:08:46;25.70;55.60
11454;DHT22;5783;55.174;61.310;2022-08-07T00:11:15;25.70;55.70
11454;DHT22;5783;55.174;61.310;2022-08-07T00:13:45;25.70;55.80
11454;DHT22;5783;55.174;61.310;2022-08-07T00:16:14;25.70;56.00
11454;DHT22;5783;55.174;61.310;2022-08-07T00:18:43;25.60;56.00
11454;DHT22;5783;55.174;61.310;2022-08-07T00:21:12;25.60;56.00
11454;DHT22;5783;55.174;61.310;2022-08-07T00:23:41;25.60;56.10
11454;DHT22;5783;55.174;61.310;2022-08-07T00:26:11;25.60;56.20
11454;DHT22;5783;55.174;61.310;2022-08-07T00:28:40;25.70;56.40
11454;DHT22;5783;55.174;61.310;2022-08-07T00:31:10;25.60;56.10
11454;DHT22;5783;55.174;61.310;2022-08-07T00:33:40;25.60;56.20
11454;DHT22;5783;55.174;61.310;2022-08-07T00:36:09;25.60;56.20
11454;DHT22;5783;55.174;61.310;2022-08-07T00:38:38;25.60;56.20
11454;DHT22;5783;55.174;61.310;2022-08-07T00:41:07;25.60;56.40
11454;DHT22;5783;55.174;61.310;2022-08-07T00:43:37;25.60;56.50
11454;DHT22;5783;55.174;61.310;2022-08-07T00:46:06;25.60;56.50
11454;DHT22;5783;55.174;61.310;2022-08-07T00:48:35;25.60;56.60
11454;DHT22;5783;55.174;61.310;2022-08-07T00:51:05;25.60;56.70
11454;DHT22;5783;55.174;61.310;2022-08-07T00:53:34;25.60;56.60
11454;DHT22;5783;55.174;61.310;2022-08-07T00:56:03;25.50;56.60
11454;DHT22;5783;55.174;61.310;2022-08-07T00:58:32;25.50;56.60
11454;DHT22;5783;55.174;61.310;2022-08-07T01:01:02;25.50;56.80
11454;DHT22;5783;55.174;61.310;2022-08-07T01:03:32;25.50;57.30
11454;DHT22;5783;55.174;61.310;2022-08-07T01:06:02;25.60;57.40
11454;DHT22;5783;55.174;61.310;2022-08-07T01:08:31;25.60;57.30
11454;DHT22;5783;55.174;61.310;2022-08-07T01:11:00;25.60;57.20
11454;DHT22;5783;55.174;61.310;2022-08-07T01:13:30;25.60;57.20
11454;DHT22;5783;55.174;61.310;2022-08-07T01:16:00;25.60;57.40
11454;DHT22;5783;55.174;61.310;2022-08-07T01:18:30;25.60;57.40
11454;DHT22;5783;55.174;61.310;2022-08-07T01:23:53;25.60;57.30
11454;DHT22;5783;55.174;61.310;2022-08-07T01:26:23;25.60;57.40
11454;DHT22;5783;55.174;61.310;2022-08-07T01:28:53;25.60;57.40
11454;DHT22;5783;55.174;61.310;2022-08-07T01:31:23;25.60;57.40
11454;DHT22;5783;55.174;61.310;2022-08-07T01:34:12;25.60;57.40
11454;DHT22;5783;55.174;61.310;2022-08-07T01:36:43;25.50;57.50
11454;DHT22;5783;55.174;61.310;2022-08-07T01:39:13;25.50;57.40
11454;DHT22;5783;55.174;61.310;2022-08-07T01:41:43;25.50;57.40
11454;DHT22;5783;55.174;61.310;2022-08-07T01:44:13;25.60;57.90
11454;DHT22;5783;55.174;61.310;2022-08-07T01:46:42;25.60;57.60
11454;DHT22;5783;55.174;61.310;2022-08-07T01:49:12;25.60;57.60
11454;DHT22;5783;55.174;61.310;2022-08-07T01:51:43;25.60;57.70
11454;DHT22;5783;55.174;61.310;2022-08-07T01:54:14;25.50;57.50
11454;DHT22;5783;55.174;61.310;2022-08-07T01:57:38;25.60;57.40
11454;DHT22;5783;55.174;61.310;2022-08-07T02:06:09;25.40;57.50
11454;DHT22;5783;55.174;61.310;2022-08-07T02:08:10;25.40;57.50
11454;DHT22;5783;55.174;61.310;2022-08-07T02:10:41;25.40;57.70
11454;DHT22;5783;55.174;61.310;2022-08-07T02:13:15;25.40;57.80
11454;DHT22;5783;55.174;61.310;2022-08-07T02:15:45;25.40;57.80
11454;DHT22;5783;55.174;61.310;2022-08-07T02:18:16;25.40;57.90
11454;DHT22;5783;55.174;61.310;2022-08-07T02:20:47;25.40;57.90
11454;DHT22;5783;55.174;61.310;2022-08-07T02:23:18;25.40;58.00
11454;DHT22;5783;55.174;61.310;2022-08-07T02:25:48;25.40;58.40
11454;DHT22;5783;55.174;61.310;2022-08-07T02:28:19;25.50;58.80
11454;DHT22;5783;55.174;61.310;2022-08-07T02:30:50;25.50;58.90
11454;DHT22;5783;55.174;61.310;2022-08-07T02:33:23;25.50;58.90
11454;DHT22;5783;55.174;61.310;2022-08-07T02:35:54;25.50;58.90
11454;DHT22;5783;55.174;61.310;2022-08-07T02:41:14;25.60;58.90
11454;DHT22;5783;55.174;61.310;2022-08-07T02:43:44;25.50;58.90
11454;DHT22;5783;55.174;61.310;2022-08-07T02:46:17;25.60;59.00
11454;DHT22;5783;55.174;61.310;2022-08-07T02:48:46;25.60;58.80
11454;DHT22;5783;55.174;61.310;2022-08-07T02:51:17;25.60;59.00
11454;DHT22;5783;55.174;61.310;2022-08-07T02:53:49;25.60;58.80
11454;DHT22;5783;55.174;61.310;2022-08-07T02:56:21;25.60;58.90
11454;DHT22;5783;55.174;61.310;2022-08-07T02:58:52;25.60;58.90
11454;DHT22;5783;55.174;61.310;2022-08-07T03:01:23;25.60;59.10
11454;DHT22;5783;55.174;61.310;2022-08-07T03:03:54;25.60;59.10
11454;DHT22;5783;55.174;61.310;2022-08-07T03:06:26;25.70;59.00
11454;DHT22;5783;55.174;61.310;2022-08-07T03:08:57;25.70;58.90
11454;DHT22;5783;55.174;61.310;2022-08-07T03:11:26;25.70;58.80
11454;DHT22;5783;55.174;61.310;2022-08-07T03:13:57;25.70;58.80
11454;DHT22;5783;55.174;61.310;2022-08-07T03:16:26;25.70;58.50
11454;DHT22;5783;55.174;61.310;2022-08-07T03:18:56;25.70;58.40
11454;DHT22;5783;55.174;61.310;2022-08-07T03:21:26;25.70;58.30
11454;DHT22;5783;55.174;61.310;2022-08-07T03:23:57;25.70;58.20
11454;DHT22;5783;55.174;61.310;2022-08-07T03:26:29;25.70;58.20
11454;DHT22;5783;55.174;61.310;2022-08-07T03:29:00;25.70;58.20
11454;DHT22;5783;55.174;61.310;2022-08-07T03:31:30;25.60;58.10
11454;DHT22;5783;55.174;61.310;2022-08-07T03:34:01;25.60;58.00
11454;DHT22;5783;55.174;61.310;2022-08-07T03:36:32;25.60;57.70
11454;DHT22;5783;55.174;61.310;2022-08-07T03:39:04;25.60;57.60
11454;DHT22;5783;55.174;61.310;2022-08-07T03:41:35;25.60;58.10
11454;DHT22;5783;55.174;61.310;2022-08-07T03:44:05;25.60;58.10
11454;DHT22;5783;55.174;61.310;2022-08-07T03:46:35;25.70;58.30
11454;DHT22;5783;55.174;61.310;2022-08-07T03:49:07;25.60;58.40
11454;DHT22;5783;55.174;61.310;2022-08-07T03:51:37;25.70;58.40
11454;DHT22;5783;55.174;61.310;2022-08-07T03:54:06;25.70;58.50
11454;DHT22;5783;55.174;61.310;2022-08-07T03:56:37;25.70;58.50
11454;DHT22;5783;55.174;61.310;2022-08-07T03:59:10;25.70;58.60
11454;DHT22;5783;55.174;61.310;2022-08-07T04:01:42;25.70;58.50
11454;DHT22;5783;55.174;61.310;2022-08-07T04:07:02;25.70;58.50
11454;DHT22;5783;55.174;61.310;2022-08-07T04:09:35;25.70;58.50
11454;DHT22;5783;55.174;61.310;2022-08-07T04:12:04;25.70;58.50
11454;DHT22;5783;55.174;61.310;2022-08-07T04:14:34;25.70;58.50
11454;DHT22;5783;55.174;61.310;2022-08-07T04:17:04;25.70;58.50
11454;DHT22;5783;55.174;61.310;2022-08-07T04:19:33;25.80;58.50
11454;DHT22;5783;55.174;61.310;2022-08-07T04:22:03;25.80;58.60
11454;DHT22;5783;55.174;61.310;2022-08-07T04:24:33;25.80;58.60
11454;DHT22;5783;55.174;61.310;2022-08-07T04:27:03;25.90;58.50
11454;DHT22;5783;55.174;61.310;2022-08-07T04:29:33;25.90;58.40
11454;DHT22;5783;55.174;61.310;2022-08-07T04:32:02;25.90;58.60
11454;DHT22;5783;55.174;61.310;2022-08-07T04:34:32;25.90;57.80
11454;DHT22;5783;55.174;61.310;2022-08-07T04:37:02;25.90;57.80
11454;DHT22;5783;55.174;61.310;2022-08-07T04:39:31;26.00;57.90
11454;DHT22;5783;55.174;61.310;2022-08-07T04:42:02;26.00;57.90
11454;DHT22;5783;55.174;61.310;2022-08-07T04:44:32;26.00;57.80
11454;DHT22;5783;55.174;61.310;2022-08-07T05:05:56;26.10;57.50
11454;DHT22;5783;55.174;61.310;2022-08-07T05:16:59;26.10;56.40
11454;DHT22;5783;55.174;61.310;2022-08-07T05:19:33;26.20;56.40
11454;DHT22;5783;55.174;61.310;2022-08-07T05:22:02;26.20;56.20
11454;DHT22;5783;55.174;61.310;2022-08-07T05:24:33;26.20;55.90
11454;DHT22;5783;55.174;61.310;2022-08-07T05:27:05;26.30;55.70
11454;DHT22;5783;55.174;61.310;2022-08-07T05:29:35;26.30;55.20
11454;DHT22;5783;55.174;61.310;2022-08-07T05:32:06;26.30;55.30
11454;DHT22;5783;55.174;61.310;2022-08-07T05:34:36;26.40;55.20
11454;DHT22;5783;55.174;61.310;2022-08-07T05:37:08;26.40;55.00
11454;DHT22;5783;55.174;61.310;2022-08-07T05:39:37;26.40;54.70
11454;DHT22;5783;55.174;61.310;2022-08-07T05:42:07;26.40;54.50
11454;DHT22;5783;55.174;61.310;2022-08-07T05:44:38;26.40;54.20
11454;DHT22;5783;55.174;61.310;2022-08-07T05:47:10;26.40;54.00
11454;DHT22;5783;55.174;61.310;2022-08-07T05:49:39;26.40;53.60
11454;DHT22;5783;55.174;61.310;2022-08-07T05:52:10;26.40;53.10
11454;DHT22;5783;55.174;61.310;2022-08-07T05:54:40;26.40;53.10
11454;DHT22;5783;55.174;61.310;2022-08-07T05:57:09;26.40;52.90
11454;DHT22;5783;55.174;61.310;2022-08-07T05:59:41;26.40;53.00
11454;DHT22;5783;55.174;61.310;2022-08-07T06:02:32;26.40;53.70
11454;DHT22;5783;55.174;61.310;2022-08-07T06:07:57;26.40;52.80
11454;DHT22;5783;55.174;61.310;2022-08-07T06:10:27;26.40;53.00
11454;DHT22;5783;55.174;61.310;2022-08-07T06:12:58;26.40;52.90
11454;DHT22;5783;55.174;61.310;2022-08-07T06:18:02;26.50;53.10
11454;DHT22;5783;55.174;61.310;2022-08-07T06:23:22;26.50;52.20
11454;DHT22;5783;55.174;61.310;2022-08-07T06:25:52;26.50;51.40
11454;DHT22;5783;55.174;61.310;2022-08-07T06:28:21;26.50;51.20
11454;DHT22;5783;55.174;61.310;2022-08-07T06:30:50;26.50;52.50
11454;DHT22;5783;55.174;61.310;2022-08-07T06:33:20;26.50;51.70
11454;DHT22;5783;55.174;61.310;2022-08-07T06:35:50;26.50;51.30
11454;DHT22;5783;55.174;61.310;2022-08-07T06:38:19;26.50;51.80
11454;DHT22;5783;55.174;61.310;2022-08-07T06:43:37;26.60;52.80
11454;DHT22;5783;55.174;61.310;2022-08-07T06:46:07;26.60;52.00
11454;DHT22;5783;55.174;61.310;2022-08-07T06:48:39;26.60;52.00
11454;DHT22;5783;55.174;61.310;2022-08-07T06:51:35;26.70;52.00
11454;DHT22;5783;55.174;61.310;2022-08-07T06:54:07;26.70;52.10
11454;DHT22;5783;55.174;61.310;2022-08-07T06:56:38;26.70;52.50
11454;DHT22;5783;55.174;61.310;2022-08-07T06:59:47;26.70;51.40
11454;DHT22;5783;55.174;61.310;2022-08-07T07:07:56;26.70;51.80
11454;DHT22;5783;55.174;61.310;2022-08-07T07:10:56;26.70;52.00
11454;DHT22;5783;55.174;61.310;2022-08-07T07:12:59;26.70;50.70
11454;DHT22;5783;55.174;61.310;2022-08-07T07:18:18;26.70;49.80
11454;DHT22;5783;55.174;61.310;2022-08-07T07:23:57;26.70;49.50
11454;DHT22;5783;55.174;61.310;2022-08-07T07:26:29;26.70;50.70
11454;DHT22;5783;55.174;61.310;2022-08-07T07:31:51;26.70;50.60
11454;DHT22;5783;55.174;61.310;2022-08-07T07:34:43;26.70;50.40
11454;DHT22;5783;55.174;61.310;2022-08-07T07:37:12;26.70;51.60
11454;DHT22;5783;55.174;61.310;2022-08-07T07:39:44;26.70;52.40
11454;DHT22;5783;55.174;61.310;2022-08-07T07:42:15;26.60;50.80
11454;DHT22;5783;55.174;61.310;2022-08-07T07:44:45;26.40;48.50
11454;DHT22;5783;55.174;61.310;2022-08-07T07:47:16;26.10;47.20
11454;DHT22;5783;55.174;61.310;2022-08-07T07:49:47;25.90;46.90
11454;DHT22;5783;55.174;61.310;2022-08-07T07:52:20;25.60;47.00
11454;DHT22;5783;55.174;61.310;2022-08-07T07:54:50;25.30;46.60
11454;DHT22;5783;55.174;61.310;2022-08-07T07:57:21;25.10;46.90
11454;DHT22;5783;55.174;61.310;2022-08-07T07:59:51;24.90;47.10
11454;DHT22;5783;55.174;61.310;2022-08-07T08:02:24;24.70;47.20
11454;DHT22;5783;55.174;61.310;2022-08-07T08:04:55;24.60;47.60
11454;DHT22;5783;55.174;61.310;2022-08-07T08:07:25;24.50;47.30
11454;DHT22;5783;55.174;61.310;2022-08-07T08:09:55;24.30;47.10
11454;DHT22;5783;55.174;61.310;2022-08-07T08:12:25;24.20;47.10
11454;DHT22;5783;55.174;61.310;2022-08-07T08:17:24;24.10;49.00
11454;DHT22;5783;55.174;61.310;2022-08-07T08:19:58;24.20;52.70
11454;DHT22;5783;55.174;61.310;2022-08-07T08:22:27;24.40;53.00
11454;DHT22;5783;55.174;61.310;2022-08-07T08:25:17;24.70;52.70
11454;DHT22;5783;55.174;61.310;2022-08-07T08:28:10;24.90;52.80
11454;DHT22;5783;55.174;61.310;2022-08-07T08:30:40;25.10;53.20
11454;DHT22;5783;55.174;61.310;2022-08-07T08:33:12;25.30;52.90
11454;DHT22;5783;55.174;61.310;2022-08-07T08:36:17;25.40;52.30
11454;DHT22;5783;55.174;61.310;2022-08-07T08:38:19;25.50;52.70
11454;DHT22;5783;55.174;61.310;2022-08-07T08:47:26;25.80;52.20
11454;DHT22;5783;55.174;61.310;2022-08-07T08:56:15;25.90;51.70
11454;DHT22;5783;55.174;61.310;2022-08-07T09:28:46;26.20;50.80
11454;DHT22;5783;55.174;61.310;2022-08-07T09:46:26;26.40;50.60
11454;DHT22;5783;55.174;61.310;2022-08-07T10:10:29;26.70;50.00
11454;DHT22;5783;55.174;61.310;2022-08-07T10:34:04;26.70;49.40
11454;DHT22;5783;55.174;61.310;2022-08-07T10:51:20;26.70;49.90
11454;DHT22;5783;55.174;61.310;2022-08-07T10:54:11;26.70;49.80
11454;DHT22;5783;55.174;61.310;2022-08-07T11:11:42;26.80;50.10
11454;DHT22;5783;55.174;61.310;2022-08-07T11:42:20;26.80;48.70
11454;DHT22;5783;55.174;61.310;2022-08-07T11:48:04;26.80;48.90
11454;DHT22;5783;55.174;61.310;2022-08-07T12:07:37;26.80;50.00
11454;DHT22;5783;55.174;61.310;2022-08-07T12:10:46;26.80;49.70
11454;DHT22;5783;55.174;61.310;2022-08-07T12:20:45;26.80;48.90
11454;DHT22;5783;55.174;61.310;2022-08-07T12:26:02;26.80;48.80
11454;DHT22;5783;55.174;61.310;2022-08-07T12:34:07;26.80;52.00
11454;DHT22;5783;55.174;61.310;2022-08-07T12:36:37;26.90;52.10
11454;DHT22;5783;55.174;61.310;2022-08-07T12:39:07;26.90;50.70
11454;DHT22;5783;55.174;61.310;2022-08-07T12:41:35;26.90;50.50
11454;DHT22;5783;55.174;61.310;2022-08-07T12:44:05;26.90;50.60
11454;DHT22;5783;55.174;61.310;2022-08-07T12:46:39;26.90;51.10
11454;DHT22;5783;55.174;61.310;2022-08-07T12:58:02;26.90;50.20
11454;DHT22;5783;55.174;61.310;2022-08-07T12:59:58;26.80;49.70
11454;DHT22;5783;55.174;61.310;2022-08-07T13:02:38;26.80;48.70
11454;DHT22;5783;55.174;61.310;2022-08-07T13:28:12;26.60;49.40
11454;DHT22;5783;55.174;61.310;2022-08-07T13:30:42;26.60;49.40
11454;DHT22;5783;55.174;61.310;2022-08-07T13:33:35;26.60;49.70
11454;DHT22;5783;55.174;61.310;2022-08-07T13:36:07;26.60;49.70
11454;DHT22;5783;55.174;61.310;2022-08-07T13:44:16;26.60;50.40
11454;DHT22;5783;55.174;61.310;2022-08-07T13:46:45;26.60;50.10
11454;DHT22;5783;55.174;61.310;2022-08-07T13:49:18;26.60;50.00
11454;DHT22;5783;55.174;61.310;2022-08-07T13:51:47;26.60;50.00
11454;DHT22;5783;55.174;61.310;2022-08-07T13:54:21;26.60;49.80
11454;DHT22;5783;55.174;61.310;2022-08-07T13:56:51;26.60;50.30
11454;DHT22;5783;55.174;61.310;2022-08-07T13:59:41;26.70;50.70
11454;DHT22;5783;55.174;61.310;2022-08-07T14:02:12;26.70;50.40
11454;DHT22;5783;55.174;61.310;2022-08-07T14:05:33;26.60;49.90
11454;DHT22;5783;55.174;61.310;2022-08-07T14:07:51;26.60;50.20
11454;DHT22;5783;55.174;61.310;2022-08-07T14:10:21;26.60;50.40
11454;DHT22;5783;55.174;61.310;2022-08-07T14:24:22;26.60;51.20
11454;DHT22;5783;55.174;61.310;2022-08-07T14:26:20;26.60;50.80
11454;DHT22;5783;55.174;61.310;2022-08-07T14:28:50;26.60;51.20
11454;DHT22;5783;55.174;61.310;2022-08-07T14:31:23;26.60;51.60
11454;DHT22;5783;55.174;61.310;2022-08-07T14:33:53;26.70;53.00
11454;DHT22;5783;55.174;61.310;2022-08-07T14:36:23;26.70;54.10
11454;DHT22;5783;55.174;61.310;2022-08-07T14:38:53;26.70;55.50
11454;DHT22;5783;55.174;61.310;2022-08-07T14:41:42;26.80;57.20
11454;DHT22;5783;55.174;61.310;2022-08-07T14:44:13;26.70;57.60
11454;DHT22;5783;55.174;61.310;2022-08-07T14:46:41;26.80;60.40
11454;DHT22;5783;55.174;61.310;2022-08-07T14:49:10;26.80;59.50
11454;DHT22;5783;55.174;61.310;2022-08-07T14:51:41;26.80;57.20
11454;DHT22;5783;55.174;61.310;2022-08-07T14:54:13;26.80;57.80
11454;DHT22;5783;55.174;61.310;2022-08-07T14:56:42;26.90;58.30
11454;DHT22;5783;55.174;61.310;2022-08-07T14:59:13;26.90;55.70
11454;DHT22;5783;55.174;61.310;2022-08-07T15:01:42;26.80;54.00
11454;DHT22;5783;55.174;61.310;2022-08-07T15:04:10;26.90;57.00
11454;DHT22;5783;55.174;61.310;2022-08-07T15:06:39;26.90;56.30
11454;DHT22;5783;55.174;61.310;2022-08-07T15:09:11;26.90;57.50
11454;DHT22;5783;55.174;61.310;2022-08-07T15:12:14;26.90;56.70
11454;DHT22;5783;55.174;61.310;2022-08-07T15:14:49;26.80;56.00
11454;DHT22;5783;55.174;61.310;2022-08-07T15:19:33;26.90;55.90
11454;DHT22;5783;55.174;61.310;2022-08-07T15:22:03;26.80;55.90
11454;DHT22;5783;55.174;61.310;2022-08-07T15:24:35;26.80;56.00
11454;DHT22;5783;55.174;61.310;2022-08-07T15:29:56;26.80;56.80
11454;DHT22;5783;55.174;61.310;2022-08-07T15:32:25;26.80;58.90
11454;DHT22;5783;55.174;61.310;2022-08-07T15:34:54;26.80;59.50
11454;DHT22;5783;55.174;61.310;2022-08-07T15:40:14;26.80;60.10
11454;DHT22;5783;55.174;61.310;2022-08-07T15:43:21;26.80;60.60
11454;DHT22;5783;55.174;61.310;2022-08-07T15:50:57;26.80;59.60
11454;DHT22;5783;55.174;61.310;2022-08-07T15:53:27;26.80;59.50
11454;DHT22;5783;55.174;61.310;2022-08-07T15:56:15;26.80;59.00
11454;DHT22;5783;55.174;61.310;2022-08-07T16:01:16;26.70;58.80
11454;DHT22;5783;55.174;61.310;2022-08-07T16:03:47;26.70;57.50
11454;DHT22;5783;55.174;61.310;2022-08-07T16:06:14;26.80;57.40
11454;DHT22;5783;55.174;61.310;2022-08-07T16:08:43;26.80;57.50
11454;DHT22;5783;55.174;61.310;2022-08-07T16:22:34;26.70;59.20
11454;DHT22;5783;55.174;61.310;2022-08-07T16:33:50;26.60;59.70
11454;DHT22;5783;55.174;61.310;2022-08-07T16:55:31;26.40;58.50
11454;DHT22;5783;55.174;61.310;2022-08-07T17:07:14;26.50;58.20
11454;DHT22;5783;55.174;61.310;2022-08-07T17:18:48;26.60;58.00
11454;DHT22;5783;55.174;61.310;2022-08-07T17:21:17;26.60;58.00
11454;DHT22;5783;55.174;61.310;2022-08-07T17:34:46;26.60;57.70
11454;DHT22;5783;55.174;61.310;2022-08-07T17:42:39;26.60;58.40
11454;DHT22;5783;55.174;61.310;2022-08-07T18:08:50;26.40;58.80
11454;DHT22;5783;55.174;61.310;2022-08-07T18:20:11;26.40;58.40
11454;DHT22;5783;55.174;61.310;2022-08-07T18:23:01;26.40;58.50
11454;DHT22;5783;55.174;61.310;2022-08-07T18:25:32;26.40;58.50
11454;DHT22;5783;55.174;61.310;2022-08-07T18:46:01;26.40;59.00
11454;DHT22;5783;55.174;61.310;2022-08-07T18:51:41;26.40;59.00
11454;DHT22;5783;55.174;61.310;2022-08-07T19:00:10;26.40;58.30
11454;DHT22;5783;55.174;61.310;2022-08-07T19:17:05;26.40;58.60
11454;DHT22;5783;55.174;61.310;2022-08-07T19:25:56;26.20;58.90
11454;DHT22;5783;55.174;61.310;2022-08-07T19:28:28;26.20;59.10
11454;DHT22;5783;55.174;61.310;2022-08-07T19:33:49;26.30;59.20
11454;DHT22;5783;55.174;61.310;2022-08-07T19:36:18;26.30;59.30
11454;DHT22;5783;55.174;61.310;2022-08-07T19:38:49;26.30;59.30
11454;DHT22;5783;55.174;61.310;2022-08-07T19:41:20;26.30;59.30
11454;DHT22;5783;55.174;61.310;2022-08-07T19:43:47;26.30;59.10
11454;DHT22;5783;55.174;61.310;2022-08-07T19:46:21;26.30;59.10
11454;DHT22;5783;55.174;61.310;2022-08-07T19:48:49;26.30;59.00
11454;DHT22;5783;55.174;61.310;2022-08-07T19:51:17;26.30;59.00
11454;DHT22;5783;55.174;61.310;2022-08-07T19:53:48;26.30;59.00
11454;DHT22;5783;55.174;61.310;2022-08-07T19:56:17;26.30;59.10
11454;DHT22;5783;55.174;61.310;2022-08-07T19:58:46;26.30;59.10
11454;DHT22;5783;55.174;61.310;2022-08-07T20:01:16;26.30;59.00
11454;DHT22;5783;55.174;61.310;2022-08-07T20:03:46;26.30;58.90
11454;DHT22;5783;55.174;61.310;2022-08-07T20:06:15;26.30;59.00
11454;DHT22;5783;55.174;61.310;2022-08-07T20:08:45;26.30;59.00
11454;DHT22;5783;55.174;61.310;2022-08-07T20:11:16;26.30;59.00
11454;DHT22;5783;55.174;61.310;2022-08-07T20:13:46;26.30;59.10
11454;DHT22;5783;55.174;61.310;2022-08-07T20:16:48;26.30;59.10
11454;DHT22;5783;55.174;61.310;2022-08-07T20:18:46;26.30;59.10
11454;DHT22;5783;55.174;61.310;2022-08-07T20:21:15;26.30;59.10
11454;DHT22;5783;55.174;61.310;2022-08-07T20:24:21;26.30;59.10
11454;DHT22;5783;55.174;61.310;2022-08-07T20:26:18;26.30;59.10
11454;DHT22;5783;55.174;61.310;2022-08-07T20:28:49;26.30;59.30
11454;DHT22;5783;55.174;61.310;2022-08-07T20:31:19;26.20;59.20
11454;DHT22;5783;55.174;61.310;2022-08-07T20:36:40;26.20;59.40
11454;DHT22;5783;55.174;61.310;2022-08-07T20:42:03;26.20;59.40
11454;DHT22;5783;55.174;61.310;2022-08-07T20:44:32;26.20;59.50
11454;DHT22;5783;55.174;61.310;2022-08-07T20:50:08;26.20;59.60
11454;DHT22;5783;55.174;61.310;2022-08-07T20:52:38;26.10;59.80
11454;DHT22;5783;55.174;61.310;2022-08-07T20:55:07;26.10;59.90
11454;DHT22;5783;55.174;61.310;2022-08-07T21:00:50;26.20;60.00
11454;DHT22;5783;55.174;61.310;2022-08-07T21:03:17;26.20;59.90
11454;DHT22;5783;55.174;61.310;2022-08-07T21:05:47;26.20;60.00
11454;DHT22;5783;55.174;61.310;2022-08-07T21:08:20;26.20;59.90
11454;DHT22;5783;55.174;61.310;2022-08-07T21:10:47;26.20;59.80
11454;DHT22;5783;55.174;61.310;2022-08-07T21:13:18;26.20;60.00
11454;DHT22;5783;55.174;61.310;2022-08-07T21:15:47;26.20;59.90
11454;DHT22;5783;55.174;61.310;2022-08-07T21:18:16;26.20;59.80
11454;DHT22;5783;55.174;61.310;2022-08-07T21:20:47;26.20;59.90
11454;DHT22;5783;55.174;61.310;2022-08-07T21:26:07;26.20;59.70
11454;DHT22;5783;55.174;61.310;2022-08-07T21:29:11;26.20;59.60
11454;DHT22;5783;55.174;61.310;2022-08-07T21:34:17;26.20;59.60
11454;DHT22;5783;55.174;61.310;2022-08-07T21:39:56;26.20;59.70
11454;DHT22;5783;55.174;61.310;2022-08-07T22:00:41;26.00;59.70
11454;DHT22;5783;55.174;61.310;2022-08-07T22:09:04;25.90;59.90
11454;DHT22;5783;55.174;61.310;2022-08-07T22:11:05;25.90;60.00
11454;DHT22;5783;55.174;61.310;2022-08-07T22:13:37;25.90;60.10
11454;DHT22;5783;55.174;61.310;2022-08-07T22:16:08;25.90;60.10
11454;DHT22;5783;55.174;61.310;2022-08-07T22:28:40;26.00;60.50
11454;DHT22;5783;55.174;61.310;2022-08-07T22:34:03;25.90;60.70
11454;DHT22;5783;55.174;61.310;2022-08-07T22:36:03;25.90;60.80
11454;DHT22;5783;55.174;61.310;2022-08-07T22:38:52;25.90;60.80
11454;DHT22;5783;55.174;61.310;2022-08-07T22:44:32;26.00;60.80
11454;DHT22;5783;55.174;61.310;2022-08-07T23:02:46;25.90;61.20
11454;DHT22;5783;55.174;61.310;2022-08-07T23:36:09;25.70;61.90
